If you wish to contribute or participate in the discussions about articles you are invited to join SKYbrary as a registered user

 Actions

Bluefields Airport

From SKYbrary Wiki

MNBL
Airport
ICAO: MNBL – IATA: BLU
Summary
Name Bluefields Airport
Region South America and Caribbean
Territory Nicaragua NI.gif
Location Santa Rosa, South Caribbean Coast Autonomous Region
Serving Bluefields
Elevation 12.497 m
41 ft12.497 m
Coordinates 11° 59' 31.00" N, 83° 46' 21.00" W
Runways
Designator Length Width Surface ROPS
5/23 2019 m6,624.016 ft
30 m98.425 ft
ASP /


METAR
Observation MNBL 161400Z 06008KT 7000 VCRA OVC016 26/24 Q1015 REDZ RA 4/C
Station Bluefields
Date/Time 16 April 2019 14:00:00
Wind direction 60°
Wind speed 08 kts
Lowest cloud amount overcast
Temperature 26°C
Dew point 24°C
Humidity 88%
QNH 1015 hPa
Weather condition n/a

Bluefields International Airport is an airport that serves Bluefields, Nicaragua.

Climatology

Tropical rainforest climate (Köppen climate classification Af)

Maps

Terrain

Loading map...

Airport Layout

Loading map...


Accidents & Serious Incidents at or in vicinity of MNBL

None on SKYbrary